sensor_id;sensor_type;location;lat;lon;timestamp;temperature;humidity
27619;DHT22;15039;50.830;4.730;2022-08-19T00:00:18;20.20;99.90
27619;DHT22;15039;50.830;4.730;2022-08-19T00:02:44;20.20;99.90
27619;DHT22;15039;50.830;4.730;2022-08-19T00:05:12;20.20;99.90
27619;DHT22;15039;50.830;4.730;2022-08-19T00:07:38;20.20;99.90
27619;DHT22;15039;50.830;4.730;2022-08-19T00:10:06;20.20;99.90
27619;DHT22;15039;50.830;4.730;2022-08-19T00:12:32;20.20;99.90
27619;DHT22;15039;50.830;4.730;2022-08-19T00:14:58;20.10;99.90
27619;DHT22;15039;50.830;4.730;2022-08-19T00:17:23;20.10;99.90
27619;DHT22;15039;50.830;4.730;2022-08-19T00:19:49;20.10;99.90
27619;DHT22;15039;50.830;4.730;2022-08-19T00:22:15;20.00;99.90
27619;DHT22;15039;50.830;4.730;2022-08-19T00:24:43;19.90;99.90
27619;DHT22;15039;50.830;4.730;2022-08-19T00:27:09;19.80;99.90
27619;DHT22;15039;50.830;4.730;2022-08-19T00:29:35;19.90;99.90
27619;DHT22;15039;50.830;4.730;2022-08-19T00:32:00;19.90;99.90
27619;DHT22;15039;50.830;4.730;2022-08-19T00:34:26;20.00;99.90
27619;DHT22;15039;50.830;4.730;2022-08-19T00:36:55;20.00;99.90
27619;DHT22;15039;50.830;4.730;2022-08-19T00:39:21;19.80;99.90
27619;DHT22;15039;50.830;4.730;2022-08-19T00:41:49;19.80;99.90
27619;DHT22;15039;50.830;4.730;2022-08-19T00:46:43;19.60;99.90
27619;DHT22;15039;50.830;4.730;2022-08-19T00:49:15;19.80;99.90
27619;DHT22;15039;50.830;4.730;2022-08-19T00:51:45;19.60;99.90
27619;DHT22;15039;50.830;4.730;2022-08-19T00:54:12;19.60;99.90
27619;DHT22;15039;50.830;4.730;2022-08-19T00:56:39;19.70;99.90
27619;DHT22;15039;50.830;4.730;2022-08-19T00:59:05;19.70;99.90
27619;DHT22;15039;50.830;4.730;2022-08-19T01:01:39;19.60;99.90
27619;DHT22;15039;50.830;4.730;2022-08-19T01:04:06;19.70;99.90
27619;DHT22;15039;50.830;4.730;2022-08-19T01:06:32;19.60;99.90
27619;DHT22;15039;50.830;4.730;2022-08-19T01:08:59;19.60;99.90
27619;DHT22;15039;50.830;4.730;2022-08-19T01:11:27;19.50;99.90
27619;DHT22;15039;50.830;4.730;2022-08-19T01:13:54;19.50;99.90
27619;DHT22;15039;50.830;4.730;2022-08-19T01:16:22;19.60;99.90
27619;DHT22;15039;50.830;4.730;2022-08-19T01:18:49;19.60;99.90
27619;DHT22;15039;50.830;4.730;2022-08-19T01:21:31;19.60;99.90
27619;DHT22;15039;50.830;4.730;2022-08-19T01:23:57;19.50;99.90
27619;DHT22;15039;50.830;4.730;2022-08-19T01:26:25;19.40;99.90
27619;DHT22;15039;50.830;4.730;2022-08-19T01:28:53;19.30;99.90
27619;DHT22;15039;50.830;4.730;2022-08-19T01:31:22;19.40;99.90
27619;DHT22;15039;50.830;4.730;2022-08-19T01:33:50;19.50;99.90
27619;DHT22;15039;50.830;4.730;2022-08-19T01:36:26;19.40;99.90
27619;DHT22;15039;50.830;4.730;2022-08-19T01:38:54;19.40;99.90
27619;DHT22;15039;50.830;4.730;2022-08-19T01:41:20;19.50;99.90
27619;DHT22;15039;50.830;4.730;2022-08-19T01:43:46;19.40;99.90
27619;DHT22;15039;50.830;4.730;2022-08-19T01:46:11;19.30;99.90
27619;DHT22;15039;50.830;4.730;2022-08-19T01:48:40;19.20;99.90
27619;DHT22;15039;50.830;4.730;2022-08-19T01:51:07;19.20;99.90
27619;DHT22;15039;50.830;4.730;2022-08-19T01:53:34;19.30;99.90
27619;DHT22;15039;50.830;4.730;2022-08-19T01:56:00;19.20;99.90
27619;DHT22;15039;50.830;4.730;2022-08-19T01:58:37;19.20;99.90
27619;DHT22;15039;50.830;4.730;2022-08-19T02:01:05;19.20;99.90
27619;DHT22;15039;50.830;4.730;2022-08-19T02:03:31;19.20;99.90
27619;DHT22;15039;50.830;4.730;2022-08-19T02:05:58;19.10;99.90
27619;DHT22;15039;50.830;4.730;2022-08-19T02:08:26;19.20;99.90
27619;DHT22;15039;50.830;4.730;2022-08-19T02:10:51;19.10;99.90
27619;DHT22;15039;50.830;4.730;2022-08-19T02:13:17;19.10;99.90
27619;DHT22;15039;50.830;4.730;2022-08-19T02:15:43;19.10;99.90
27619;DHT22;15039;50.830;4.730;2022-08-19T02:18:09;19.00;99.90
27619;DHT22;15039;50.830;4.730;2022-08-19T02:20:36;19.00;99.90
27619;DHT22;15039;50.830;4.730;2022-08-19T02:23:02;19.00;99.90
27619;DHT22;15039;50.830;4.730;2022-08-19T02:25:28;18.90;99.90
27619;DHT22;15039;50.830;4.730;2022-08-19T02:27:54;18.90;99.90
27619;DHT22;15039;50.830;4.730;2022-08-19T02:30:20;18.90;99.90
27619;DHT22;15039;50.830;4.730;2022-08-19T02:32:45;19.00;99.90
27619;DHT22;15039;50.830;4.730;2022-08-19T02:35:13;18.90;99.90
27619;DHT22;15039;50.830;4.730;2022-08-19T02:37:40;18.90;99.90
27619;DHT22;15039;50.830;4.730;2022-08-19T02:40:24;18.80;99.90
27619;DHT22;15039;50.830;4.730;2022-08-19T02:42:50;18.80;99.90
27619;DHT22;15039;50.830;4.730;2022-08-19T02:45:16;18.70;99.90
27619;DHT22;15039;50.830;4.730;2022-08-19T02:47:41;18.70;99.90
27619;DHT22;15039;50.830;4.730;2022-08-19T02:50:08;18.70;99.90
27619;DHT22;15039;50.830;4.730;2022-08-19T02:52:34;18.70;99.90
27619;DHT22;15039;50.830;4.730;2022-08-19T02:55:00;18.70;99.90
27619;DHT22;15039;50.830;4.730;2022-08-19T02:57:26;18.60;99.90
27619;DHT22;15039;50.830;4.730;2022-08-19T02:59:52;18.50;99.90
27619;DHT22;15039;50.830;4.730;2022-08-19T03:02:18;18.50;99.90
27619;DHT22;15039;50.830;4.730;2022-08-19T03:04:43;18.50;99.90
27619;DHT22;15039;50.830;4.730;2022-08-19T03:07:09;18.40;99.90
27619;DHT22;15039;50.830;4.730;2022-08-19T03:09:39;18.40;99.90
27619;DHT22;15039;50.830;4.730;2022-08-19T03:12:05;18.40;99.90
27619;DHT22;15039;50.830;4.730;2022-08-19T03:14:32;18.40;99.90
27619;DHT22;15039;50.830;4.730;2022-08-19T03:16:58;18.40;99.90
27619;DHT22;15039;50.830;4.730;2022-08-19T03:19:24;18.30;99.90
27619;DHT22;15039;50.830;4.730;2022-08-19T03:21:50;18.20;99.90
27619;DHT22;15039;50.830;4.730;2022-08-19T03:24:17;18.20;99.90
27619;DHT22;15039;50.830;4.730;2022-08-19T03:26:47;18.20;99.90
27619;DHT22;15039;50.830;4.730;2022-08-19T03:29:14;18.20;99.90
27619;DHT22;15039;50.830;4.730;2022-08-19T03:31:42;18.10;99.90
27619;DHT22;15039;50.830;4.730;2022-08-19T03:34:10;18.10;99.90
27619;DHT22;15039;50.830;4.730;2022-08-19T03:36:37;18.10;99.90
27619;DHT22;15039;50.830;4.730;2022-08-19T03:39:03;18.10;99.90
27619;DHT22;15039;50.830;4.730;2022-08-19T03:41:32;18.00;99.90
27619;DHT22;15039;50.830;4.730;2022-08-19T03:43:59;18.10;99.90
27619;DHT22;15039;50.830;4.730;2022-08-19T03:46:27;18.10;99.90
27619;DHT22;15039;50.830;4.730;2022-08-19T03:48:55;18.10;99.90
27619;DHT22;15039;50.830;4.730;2022-08-19T03:51:23;18.00;99.90
27619;DHT22;15039;50.830;4.730;2022-08-19T03:53:51;18.00;99.90
27619;DHT22;15039;50.830;4.730;2022-08-19T03:56:17;17.90;99.90
27619;DHT22;15039;50.830;4.730;2022-08-19T03:58:44;17.90;99.90
27619;DHT22;15039;50.830;4.730;2022-08-19T04:01:13;17.90;99.90
27619;DHT22;15039;50.830;4.730;2022-08-19T04:03:39;17.80;99.90
27619;DHT22;15039;50.830;4.730;2022-08-19T04:06:16;17.90;99.90
27619;DHT22;15039;50.830;4.730;2022-08-19T04:08:43;17.80;99.90
27619;DHT22;15039;50.830;4.730;2022-08-19T04:11:12;17.80;99.90
27619;DHT22;15039;50.830;4.730;2022-08-19T04:13:38;17.70;99.90
27619;DHT22;15039;50.830;4.730;2022-08-19T04:16:05;17.70;99.90
27619;DHT22;15039;50.830;4.730;2022-08-19T04:18:33;17.70;99.90
27619;DHT22;15039;50.830;4.730;2022-08-19T04:20:59;17.70;99.90
27619;DHT22;15039;50.830;4.730;2022-08-19T04:23:26;17.70;99.90
27619;DHT22;15039;50.830;4.730;2022-08-19T04:25:53;17.70;99.90
27619;DHT22;15039;50.830;4.730;2022-08-19T04:28:19;17.70;99.90
27619;DHT22;15039;50.830;4.730;2022-08-19T04:30:47;17.80;99.90
27619;DHT22;15039;50.830;4.730;2022-08-19T04:33:15;17.70;99.90
27619;DHT22;15039;50.830;4.730;2022-08-19T04:35:43;17.70;99.90
27619;DHT22;15039;50.830;4.730;2022-08-19T04:38:10;17.60;99.90
27619;DHT22;15039;50.830;4.730;2022-08-19T04:40:41;17.60;99.90
27619;DHT22;15039;50.830;4.730;2022-08-19T04:43:26;17.60;99.90
27619;DHT22;15039;50.830;4.730;2022-08-19T04:45:52;17.60;99.90
27619;DHT22;15039;50.830;4.730;2022-08-19T04:48:19;17.60;99.90
27619;DHT22;15039;50.830;4.730;2022-08-19T04:50:55;17.60;99.90
27619;DHT22;15039;50.830;4.730;2022-08-19T04:53:29;17.50;99.90
27619;DHT22;15039;50.830;4.730;2022-08-19T04:55:59;17.50;99.90
27619;DHT22;15039;50.830;4.730;2022-08-19T04:58:27;17.40;99.90
27619;DHT22;15039;50.830;4.730;2022-08-19T05:00:53;17.40;99.90
27619;DHT22;15039;50.830;4.730;2022-08-19T05:03:19;17.40;99.90
27619;DHT22;15039;50.830;4.730;2022-08-19T05:05:46;17.40;99.90
27619;DHT22;15039;50.830;4.730;2022-08-19T05:08:15;17.50;99.90
27619;DHT22;15039;50.830;4.730;2022-08-19T05:10:46;17.40;99.90
27619;DHT22;15039;50.830;4.730;2022-08-19T05:13:13;17.40;99.90
27619;DHT22;15039;50.830;4.730;2022-08-19T05:15:39;17.50;99.90
27619;DHT22;15039;50.830;4.730;2022-08-19T05:18:04;17.50;99.90
27619;DHT22;15039;50.830;4.730;2022-08-19T05:20:49;17.50;99.90
27619;DHT22;15039;50.830;4.730;2022-08-19T05:23:33;17.50;99.90
27619;DHT22;15039;50.830;4.730;2022-08-19T05:25:58;17.60;99.90
27619;DHT22;15039;50.830;4.730;2022-08-19T05:28:24;17.60;99.90
27619;DHT22;15039;50.830;4.730;2022-08-19T05:30:49;17.60;99.90
27619;DHT22;15039;50.830;4.730;2022-08-19T05:33:17;17.60;99.90
27619;DHT22;15039;50.830;4.730;2022-08-19T05:35:43;17.60;99.90
27619;DHT22;15039;50.830;4.730;2022-08-19T05:38:10;17.60;99.90
27619;DHT22;15039;50.830;4.730;2022-08-19T05:40:37;17.60;99.90
27619;DHT22;15039;50.830;4.730;2022-08-19T05:43:05;17.70;99.90
27619;DHT22;15039;50.830;4.730;2022-08-19T05:45:31;17.70;99.90
27619;DHT22;15039;50.830;4.730;2022-08-19T05:47:56;17.60;99.90
27619;DHT22;15039;50.830;4.730;2022-08-19T05:50:24;17.70;99.90
27619;DHT22;15039;50.830;4.730;2022-08-19T05:52:52;17.80;99.90
27619;DHT22;15039;50.830;4.730;2022-08-19T05:55:18;17.80;99.90
27619;DHT22;15039;50.830;4.730;2022-08-19T05:57:45;17.80;99.90
27619;DHT22;15039;50.830;4.730;2022-08-19T06:00:12;17.80;99.90
27619;DHT22;15039;50.830;4.730;2022-08-19T06:02:38;17.80;99.90
27619;DHT22;15039;50.830;4.730;2022-08-19T06:05:05;17.90;99.90
27619;DHT22;15039;50.830;4.730;2022-08-19T06:07:36;18.00;99.90
27619;DHT22;15039;50.830;4.730;2022-08-19T06:10:04;18.00;99.90
27619;DHT22;15039;50.830;4.730;2022-08-19T06:12:31;18.20;99.90
27619;DHT22;15039;50.830;4.730;2022-08-19T06:15:01;18.40;99.90
27619;DHT22;15039;50.830;4.730;2022-08-19T06:17:27;18.40;99.90
27619;DHT22;15039;50.830;4.730;2022-08-19T06:19:55;18.50;99.90
27619;DHT22;15039;50.830;4.730;2022-08-19T06:22:21;18.60;99.90
27619;DHT22;15039;50.830;4.730;2022-08-19T06:24:46;18.50;99.90
27619;DHT22;15039;50.830;4.730;2022-08-19T06:27:12;18.60;99.90
27619;DHT22;15039;50.830;4.730;2022-08-19T06:29:38;18.60;99.90
27619;DHT22;15039;50.830;4.730;2022-08-19T06:32:04;18.70;99.90
27619;DHT22;15039;50.830;4.730;2022-08-19T06:34:33;18.80;99.90
27619;DHT22;15039;50.830;4.730;2022-08-19T06:37:01;18.80;99.90
27619;DHT22;15039;50.830;4.730;2022-08-19T06:39:30;18.80;99.90
27619;DHT22;15039;50.830;4.730;2022-08-19T06:41:58;18.90;99.90
27619;DHT22;15039;50.830;4.730;2022-08-19T06:44:27;19.00;99.90
27619;DHT22;15039;50.830;4.730;2022-08-19T06:46:56;19.10;99.90
27619;DHT22;15039;50.830;4.730;2022-08-19T06:49:23;19.10;99.90
27619;DHT22;15039;50.830;4.730;2022-08-19T06:51:49;19.20;99.90
27619;DHT22;15039;50.830;4.730;2022-08-19T06:54:16;19.40;99.90
27619;DHT22;15039;50.830;4.730;2022-08-19T06:56:42;19.50;99.90
27619;DHT22;15039;50.830;4.730;2022-08-19T06:59:16;19.50;99.90
27619;DHT22;15039;50.830;4.730;2022-08-19T07:01:51;19.50;99.90
27619;DHT22;15039;50.830;4.730;2022-08-19T07:04:20;19.60;99.90
27619;DHT22;15039;50.830;4.730;2022-08-19T07:06:48;19.60;99.90
27619;DHT22;15039;50.830;4.730;2022-08-19T07:09:15;19.70;99.90
27619;DHT22;15039;50.830;4.730;2022-08-19T07:11:46;19.70;99.90
27619;DHT22;15039;50.830;4.730;2022-08-19T07:14:13;19.80;99.90
27619;DHT22;15039;50.830;4.730;2022-08-19T07:16:43;20.10;99.90
27619;DHT22;15039;50.830;4.730;2022-08-19T07:19:11;20.00;99.90
27619;DHT22;15039;50.830;4.730;2022-08-19T07:21:37;20.00;99.90
27619;DHT22;15039;50.830;4.730;2022-08-19T07:24:03;20.10;99.90
27619;DHT22;15039;50.830;4.730;2022-08-19T07:26:33;20.20;99.90
27619;DHT22;15039;50.830;4.730;2022-08-19T07:29:04;20.20;99.90
27619;DHT22;15039;50.830;4.730;2022-08-19T07:31:30;20.30;99.90
27619;DHT22;15039;50.830;4.730;2022-08-19T07:33:55;20.30;99.90
27619;DHT22;15039;50.830;4.730;2022-08-19T07:36:24;20.30;99.90
27619;DHT22;15039;50.830;4.730;2022-08-19T07:38:51;20.40;99.90
27619;DHT22;15039;50.830;4.730;2022-08-19T07:41:25;20.50;99.90
27619;DHT22;15039;50.830;4.730;2022-08-19T07:43:52;20.60;99.90
27619;DHT22;15039;50.830;4.730;2022-08-19T07:46:19;20.60;99.90
27619;DHT22;15039;50.830;4.730;2022-08-19T07:48:48;20.60;99.90
27619;DHT22;15039;50.830;4.730;2022-08-19T07:51:18;20.70;99.90
27619;DHT22;15039;50.830;4.730;2022-08-19T07:53:44;20.90;99.90
27619;DHT22;15039;50.830;4.730;2022-08-19T07:56:12;20.80;99.90
27619;DHT22;15039;50.830;4.730;2022-08-19T07:58:40;20.80;99.90
27619;DHT22;15039;50.830;4.730;2022-08-19T08:01:08;20.80;99.90
27619;DHT22;15039;50.830;4.730;2022-08-19T08:03:36;21.00;99.90
27619;DHT22;15039;50.830;4.730;2022-08-19T08:06:21;21.10;99.90
27619;DHT22;15039;50.830;4.730;2022-08-19T08:09:06;21.30;99.90
27619;DHT22;15039;50.830;4.730;2022-08-19T08:11:48;21.50;99.90
27619;DHT22;15039;50.830;4.730;2022-08-19T08:14:23;21.70;99.90
27619;DHT22;15039;50.830;4.730;2022-08-19T08:16:50;21.90;99.90
27619;DHT22;15039;50.830;4.730;2022-08-19T08:19:18;22.10;99.90
27619;DHT22;15039;50.830;4.730;2022-08-19T08:21:46;22.30;99.90
27619;DHT22;15039;50.830;4.730;2022-08-19T08:24:12;22.50;99.90
27619;DHT22;15039;50.830;4.730;2022-08-19T08:26:38;22.60;99.90
27619;DHT22;15039;50.830;4.730;2022-08-19T08:29:04;22.80;99.90
27619;DHT22;15039;50.830;4.730;2022-08-19T08:31:32;23.10;99.90
27619;DHT22;15039;50.830;4.730;2022-08-19T08:33:59;23.10;99.90
27619;DHT22;15039;50.830;4.730;2022-08-19T08:36:25;23.00;99.90
27619;DHT22;15039;50.830;4.730;2022-08-19T08:38:51;23.10;99.90
27619;DHT22;15039;50.830;4.730;2022-08-19T08:44:47;23.10;99.90
27619;DHT22;15039;50.830;4.730;2022-08-19T08:47:17;23.20;99.90
27619;DHT22;15039;50.830;4.730;2022-08-19T08:52:21;23.20;99.90
27619;DHT22;15039;50.830;4.730;2022-08-19T08:54:50;23.10;99.90
27619;DHT22;15039;50.830;4.730;2022-08-19T09:00:20;23.00;99.90
27619;DHT22;15039;50.830;4.730;2022-08-19T09:02:46;23.00;99.90
27619;DHT22;15039;50.830;4.730;2022-08-19T09:05:12;23.00;99.90
27619;DHT22;15039;50.830;4.730;2022-08-19T09:10:19;23.20;99.90
27619;DHT22;15039;50.830;4.730;2022-08-19T09:15:45;23.50;99.90
27619;DHT22;15039;50.830;4.730;2022-08-19T09:18:13;23.60;99.90
27619;DHT22;15039;50.830;4.730;2022-08-19T09:20:39;23.70;99.90
27619;DHT22;15039;50.830;4.730;2022-08-19T09:23:04;23.90;99.90
27619;DHT22;15039;50.830;4.730;2022-08-19T09:25:30;23.90;99.90
27619;DHT22;15039;50.830;4.730;2022-08-19T09:27:57;24.00;99.90
27619;DHT22;15039;50.830;4.730;2022-08-19T09:30:26;24.10;99.90
27619;DHT22;15039;50.830;4.730;2022-08-19T09:32:52;24.30;99.90
27619;DHT22;15039;50.830;4.730;2022-08-19T09:35:23;24.10;99.90
27619;DHT22;15039;50.830;4.730;2022-08-19T09:37:49;24.20;99.90
27619;DHT22;15039;50.830;4.730;2022-08-19T09:40:16;24.30;99.90
27619;DHT22;15039;50.830;4.730;2022-08-19T09:42:43;24.30;99.90
27619;DHT22;15039;50.830;4.730;2022-08-19T09:45:12;24.40;99.90
27619;DHT22;15039;50.830;4.730;2022-08-19T09:47:38;24.50;99.90
27619;DHT22;15039;50.830;4.730;2022-08-19T09:50:06;24.60;99.90
27619;DHT22;15039;50.830;4.730;2022-08-19T09:52:32;24.60;99.90
27619;DHT22;15039;50.830;4.730;2022-08-19T09:54:58;24.70;99.90
27619;DHT22;15039;50.830;4.730;2022-08-19T09:57:23;24.80;99.90
27619;DHT22;15039;50.830;4.730;2022-08-19T09:59:49;24.70;99.90
27619;DHT22;15039;50.830;4.730;2022-08-19T10:02:14;24.70;99.90
27619;DHT22;15039;50.830;4.730;2022-08-19T10:04:40;24.70;99.90
27619;DHT22;15039;50.830;4.730;2022-08-19T10:07:25;24.80;99.90
27619;DHT22;15039;50.830;4.730;2022-08-19T10:09:50;24.80;99.90
27619;DHT22;15039;50.830;4.730;2022-08-19T10:12:16;24.70;99.90
27619;DHT22;15039;50.830;4.730;2022-08-19T10:14:41;24.50;99.90
27619;DHT22;15039;50.830;4.730;2022-08-19T10:17:08;24.40;99.90
27619;DHT22;15039;50.830;4.730;2022-08-19T10:19:33;24.10;99.90
27619;DHT22;15039;50.830;4.730;2022-08-19T10:22:05;24.10;99.90
27619;DHT22;15039;50.830;4.730;2022-08-19T10:24:32;24.50;99.90
27619;DHT22;15039;50.830;4.730;2022-08-19T10:27:00;24.80;99.90
27619;DHT22;15039;50.830;4.730;2022-08-19T10:29:29;24.90;99.90
27619;DHT22;15039;50.830;4.730;2022-08-19T10:31:54;25.10;99.90
27619;DHT22;15039;50.830;4.730;2022-08-19T10:34:21;25.30;99.90
27619;DHT22;15039;50.830;4.730;2022-08-19T10:36:46;25.50;99.90
27619;DHT22;15039;50.830;4.730;2022-08-19T10:39:13;25.70;99.90
27619;DHT22;15039;50.830;4.730;2022-08-19T10:41:39;25.80;99.90
27619;DHT22;15039;50.830;4.730;2022-08-19T10:44:08;25.60;99.90
27619;DHT22;15039;50.830;4.730;2022-08-19T10:46:37;25.70;99.90
27619;DHT22;15039;50.830;4.730;2022-08-19T10:49:05;25.60;99.90
27619;DHT22;15039;50.830;4.730;2022-08-19T10:51:32;25.50;99.90
27619;DHT22;15039;50.830;4.730;2022-08-19T10:54:16;25.30;99.90
27619;DHT22;15039;50.830;4.730;2022-08-19T10:56:42;25.10;99.90
27619;DHT22;15039;50.830;4.730;2022-08-19T10:59:23;25.20;99.90
27619;DHT22;15039;50.830;4.730;2022-08-19T11:01:50;25.50;99.90
27619;DHT22;15039;50.830;4.730;2022-08-19T11:04:16;25.60;99.90
27619;DHT22;15039;50.830;4.730;2022-08-19T11:06:44;25.90;99.90
27619;DHT22;15039;50.830;4.730;2022-08-19T11:09:14;26.10;99.90
27619;DHT22;15039;50.830;4.730;2022-08-19T11:11:41;26.30;99.90
27619;DHT22;15039;50.830;4.730;2022-08-19T11:14:09;26.30;99.90
27619;DHT22;15039;50.830;4.730;2022-08-19T11:16:35;26.20;99.90
27619;DHT22;15039;50.830;4.730;2022-08-19T11:19:03;26.20;99.90
27619;DHT22;15039;50.830;4.730;2022-08-19T11:21:35;26.10;99.90
27619;DHT22;15039;50.830;4.730;2022-08-19T11:24:04;25.90;99.90
27619;DHT22;15039;50.830;4.730;2022-08-19T11:26:32;25.90;99.90
27619;DHT22;15039;50.830;4.730;2022-08-19T11:28:59;25.70;99.90
27619;DHT22;15039;50.830;4.730;2022-08-19T11:31:33;25.70;99.90
27619;DHT22;15039;50.830;4.730;2022-08-19T11:34:01;25.40;99.90
27619;DHT22;15039;50.830;4.730;2022-08-19T11:36:27;25.50;99.90
27619;DHT22;15039;50.830;4.730;2022-08-19T11:38:53;25.60;99.90
27619;DHT22;15039;50.830;4.730;2022-08-19T11:41:21;25.60;99.90
27619;DHT22;15039;50.830;4.730;2022-08-19T11:43:49;25.70;99.90
27619;DHT22;15039;50.830;4.730;2022-08-19T11:46:16;25.60;99.90
27619;DHT22;15039;50.830;4.730;2022-08-19T11:48:42;25.40;99.90
27619;DHT22;15039;50.830;4.730;2022-08-19T11:51:11;25.10;99.90
27619;DHT22;15039;50.830;4.730;2022-08-19T11:53:37;25.00;99.90
27619;DHT22;15039;50.830;4.730;2022-08-19T11:56:05;25.10;99.90
27619;DHT22;15039;50.830;4.730;2022-08-19T11:58:31;25.00;99.90
27619;DHT22;15039;50.830;4.730;2022-08-19T12:00:57;24.80;99.90
27619;DHT22;15039;50.830;4.730;2022-08-19T12:03:23;24.90;99.90
27619;DHT22;15039;50.830;4.730;2022-08-19T12:05:49;25.00;99.90
27619;DHT22;15039;50.830;4.730;2022-08-19T12:08:15;25.00;99.90
27619;DHT22;15039;50.830;4.730;2022-08-19T12:10:41;24.80;99.90
27619;DHT22;15039;50.830;4.730;2022-08-19T12:13:10;24.80;99.90
27619;DHT22;15039;50.830;4.730;2022-08-19T12:15:39;24.80;99.90
27619;DHT22;15039;50.830;4.730;2022-08-19T12:18:10;24.50;99.90
27619;DHT22;15039;50.830;4.730;2022-08-19T12:20:37;24.20;99.90
27619;DHT22;15039;50.830;4.730;2022-08-19T12:23:04;24.10;99.90
27619;DHT22;15039;50.830;4.730;2022-08-19T12:25:30;24.10;99.90
27619;DHT22;15039;50.830;4.730;2022-08-19T12:27:57;24.10;99.90
27619;DHT22;15039;50.830;4.730;2022-08-19T12:30:23;24.30;99.90
27619;DHT22;15039;50.830;4.730;2022-08-19T12:32:49;24.50;99.90
27619;DHT22;15039;50.830;4.730;2022-08-19T12:35:17;24.70;99.90
27619;DHT22;15039;50.830;4.730;2022-08-19T12:37:46;25.10;99.90
27619;DHT22;15039;50.830;4.730;2022-08-19T12:40:13;25.40;99.90
27619;DHT22;15039;50.830;4.730;2022-08-19T12:42:39;25.80;99.90
27619;DHT22;15039;50.830;4.730;2022-08-19T12:45:09;26.10;99.90
27619;DHT22;15039;50.830;4.730;2022-08-19T12:47:35;26.30;99.90
27619;DHT22;15039;50.830;4.730;2022-08-19T12:50:01;26.40;99.90
27619;DHT22;15039;50.830;4.730;2022-08-19T12:52:27;26.40;99.90
27619;DHT22;15039;50.830;4.730;2022-08-19T12:54:55;26.30;99.90
27619;DHT22;15039;50.830;4.730;2022-08-19T12:57:23;26.40;99.90
27619;DHT22;15039;50.830;4.730;2022-08-19T12:59:52;26.50;99.90
27619;DHT22;15039;50.830;4.730;2022-08-19T13:02:19;26.70;99.90
27619;DHT22;15039;50.830;4.730;2022-08-19T13:04:45;26.80;99.90
27619;DHT22;15039;50.830;4.730;2022-08-19T13:07:11;27.00;99.90
27619;DHT22;15039;50.830;4.730;2022-08-19T13:09:37;27.20;99.90
27619;DHT22;15039;50.830;4.730;2022-08-19T13:12:03;27.30;99.90
27619;DHT22;15039;50.830;4.730;2022-08-19T13:14:34;27.20;99.90
27619;DHT22;15039;50.830;4.730;2022-08-19T13:17:00;27.00;99.90
27619;DHT22;15039;50.830;4.730;2022-08-19T13:19:26;27.10;99.90
27619;DHT22;15039;50.830;4.730;2022-08-19T13:21:52;27.20;99.90
27619;DHT22;15039;50.830;4.730;2022-08-19T13:24:20;27.20;99.90
27619;DHT22;15039;50.830;4.730;2022-08-19T13:26:46;27.30;99.90
27619;DHT22;15039;50.830;4.730;2022-08-19T13:29:13;27.10;99.90
27619;DHT22;15039;50.830;4.730;2022-08-19T13:31:58;27.00;99.90
27619;DHT22;15039;50.830;4.730;2022-08-19T13:34:42;27.10;99.90
27619;DHT22;15039;50.830;4.730;2022-08-19T13:37:08;27.20;99.90
27619;DHT22;15039;50.830;4.730;2022-08-19T13:39:35;27.20;99.90
27619;DHT22;15039;50.830;4.730;2022-08-19T13:42:01;27.40;99.90
27619;DHT22;15039;50.830;4.730;2022-08-19T13:44:28;27.50;99.90
27619;DHT22;15039;50.830;4.730;2022-08-19T13:47:01;27.50;99.90
27619;DHT22;15039;50.830;4.730;2022-08-19T13:49:35;27.60;99.90
27619;DHT22;15039;50.830;4.730;2022-08-19T13:52:02;27.40;99.90
27619;DHT22;15039;50.830;4.730;2022-08-19T13:54:28;27.50;99.90
27619;DHT22;15039;50.830;4.730;2022-08-19T13:56:53;27.30;99.90
27619;DHT22;15039;50.830;4.730;2022-08-19T13:59:19;27.20;99.90
27619;DHT22;15039;50.830;4.730;2022-08-19T14:01:44;27.20;99.90
27619;DHT22;15039;50.830;4.730;2022-08-19T14:04:10;27.20;99.90
27619;DHT22;15039;50.830;4.730;2022-08-19T14:06:36;27.10;99.90
27619;DHT22;15039;50.830;4.730;2022-08-19T14:09:02;27.10;99.90
27619;DHT22;15039;50.830;4.730;2022-08-19T14:11:29;27.10;99.90
27619;DHT22;15039;50.830;4.730;2022-08-19T14:13:55;27.00;99.90
27619;DHT22;15039;50.830;4.730;2022-08-19T14:16:20;27.10;99.90
27619;DHT22;15039;50.830;4.730;2022-08-19T14:18:47;27.20;99.90
27619;DHT22;15039;50.830;4.730;2022-08-19T14:21:17;27.10;99.90
27619;DHT22;15039;50.830;4.730;2022-08-19T14:23:46;27.10;99.90
27619;DHT22;15039;50.830;4.730;2022-08-19T14:26:15;27.00;99.90
27619;DHT22;15039;50.830;4.730;2022-08-19T14:28:43;27.00;99.90
27619;DHT22;15039;50.830;4.730;2022-08-19T14:31:13;27.20;99.90
27619;DHT22;15039;50.830;4.730;2022-08-19T14:33:41;27.20;99.90
27619;DHT22;15039;50.830;4.730;2022-08-19T14:36:08;27.20;99.90
27619;DHT22;15039;50.830;4.730;2022-08-19T14:38:33;27.30;99.90
27619;DHT22;15039;50.830;4.730;2022-08-19T14:41:21;27.40;99.90
27619;DHT22;15039;50.830;4.730;2022-08-19T14:43:49;27.40;99.90
27619;DHT22;15039;50.830;4.730;2022-08-19T14:46:17;27.40;99.90
27619;DHT22;15039;50.830;4.730;2022-08-19T14:48:44;27.00;99.90
27619;DHT22;15039;50.830;4.730;2022-08-19T14:51:11;27.00;99.90
27619;DHT22;15039;50.830;4.730;2022-08-19T14:53:37;27.20;99.90
27619;DHT22;15039;50.830;4.730;2022-08-19T14:56:08;27.20;99.90
27619;DHT22;15039;50.830;4.730;2022-08-19T14:58:34;27.00;99.90
27619;DHT22;15039;50.830;4.730;2022-08-19T15:01:00;26.70;99.90
27619;DHT22;15039;50.830;4.730;2022-08-19T15:03:27;26.40;99.90
27619;DHT22;15039;50.830;4.730;2022-08-19T15:05:53;26.20;99.90
27619;DHT22;15039;50.830;4.730;2022-08-19T15:08:19;26.10;99.90
27619;DHT22;15039;50.830;4.730;2022-08-19T15:10:46;26.10;99.90
27619;DHT22;15039;50.830;4.730;2022-08-19T15:13:13;26.10;99.90
27619;DHT22;15039;50.830;4.730;2022-08-19T15:15:38;26.30;99.90
27619;DHT22;15039;50.830;4.730;2022-08-19T15:18:04;26.20;99.90
27619;DHT22;15039;50.830;4.730;2022-08-19T15:20:30;26.00;99.90
27619;DHT22;15039;50.830;4.730;2022-08-19T15:22:56;25.80;99.90
27619;DHT22;15039;50.830;4.730;2022-08-19T15:25:23;25.70;99.90
27619;DHT22;15039;50.830;4.730;2022-08-19T15:27:53;25.60;99.90
27619;DHT22;15039;50.830;4.730;2022-08-19T15:30:24;25.60;99.90
27619;DHT22;15039;50.830;4.730;2022-08-19T15:32:50;25.60;99.90
27619;DHT22;15039;50.830;4.730;2022-08-19T15:35:18;25.70;99.90
27619;DHT22;15039;50.830;4.730;2022-08-19T15:37:47;25.60;99.90
27619;DHT22;15039;50.830;4.730;2022-08-19T15:40:13;25.50;99.90
27619;DHT22;15039;50.830;4.730;2022-08-19T15:42:39;25.30;99.90
27619;DHT22;15039;50.830;4.730;2022-08-19T15:45:08;25.00;99.90
27619;DHT22;15039;50.830;4.730;2022-08-19T15:47:36;24.70;99.90
27619;DHT22;15039;50.830;4.730;2022-08-19T15:50:19;24.50;99.90